メインページ
METAR-TAF:

METAR-TAF

空港 :

South Bend Regional Airport

サウスベンド, インディアナ州, アメリカ合衆国

緯度: 41-42-32N, 経度: 086-19-07W, 海抜: 244m

現時点の気象観測

当レポートは48分前の23:54(UTC)に作成
の風 4kt
気温 22°C
湿度 46%
気圧 1023 hPa
視程: 16.1km
晴天

METAR: KSBN 242354Z 08004KT 10SM CLR 22/10 A3021 RMK AO2 SLP227 T02170100 10239 20217 58004

時間: 20:42 (00:42 UTC)

予報

当レポートは1時間22分前の23:20(UTC)に作成
予報は25日の 00時(UTC)から 25日の 24時(UTC)まで有効
の風 5kt
視程: 10km
高度25000ftの雲はほとんどない
25日の 1400時(UTC)から
東/南東の風 11kt
視程: 10km
高度5000ftの雲は散在している

TAF: KSBN 242320Z 2500/2524 08005KT P6SM FEW250 FM251400 11011KT P6SM SCT050

4,000以上の空港の気象観測と天気予報(METAR報とTAF報)

利用可能な観測所は地図上に黄色い丸と赤い丸で示す。

丸の上にカーソルを重ねると観測所名を参照できる。

次にクリックすると気象観測と天気予報を参照できる。

マップの切り替え:黒色「×」印の緑ボタンをクリックして拡大、「-」印の緑ボタンをクリックして縮小、緑色の三角印をクリックして隣りの地図に切り替え


METAR-TAF: